createdAt,value
2023-04-13T00:00:36.500Z,9.45
2023-04-13T00:03:11.470Z,9.39
2023-04-13T00:05:47.017Z,9.35
2023-04-13T00:08:21.894Z,9.30
2023-04-13T00:10:55.690Z,9.24
2023-04-13T00:13:28.836Z,9.18
2023-04-13T00:16:02.964Z,9.13
2023-04-13T00:18:36.205Z,9.08
2023-04-13T00:21:12.279Z,9.02
2023-04-13T00:23:45.674Z,8.96
2023-04-13T00:26:20.701Z,8.92
2023-04-13T00:28:53.772Z,8.89
2023-04-13T00:31:27.143Z,8.83
2023-04-13T00:34:00.845Z,8.80
2023-04-13T00:36:34.492Z,8.75
2023-04-13T00:39:08.253Z,8.70
2023-04-13T00:41:43.234Z,8.65
2023-04-13T00:44:19.375Z,8.63
2023-04-13T00:46:54.539Z,8.63
2023-04-13T00:49:28.047Z,8.59
2023-04-13T00:52:02.944Z,8.57
2023-04-13T00:54:37.415Z,8.59
2023-04-13T00:57:11.744Z,8.56
2023-04-13T00:59:45.259Z,8.54
2023-04-13T01:02:18.638Z,8.51
2023-04-13T01:04:53.076Z,8.45
2023-04-13T01:07:29.807Z,8.42
2023-04-13T01:10:07.787Z,8.38
2023-04-13T01:12:45.242Z,8.36
2023-04-13T01:15:20.292Z,8.33
2023-04-13T01:17:57.252Z,8.30
2023-04-13T01:20:33.404Z,8.26
2023-04-13T01:23:10.022Z,8.24
2023-04-13T01:25:47.444Z,8.21
2023-04-13T01:28:22.341Z,8.20
2023-04-13T01:30:57.643Z,8.17
2023-04-13T01:33:32.810Z,8.13
2023-04-13T01:36:10.608Z,8.11
2023-04-13T01:38:43.670Z,8.09
2023-04-13T01:41:18.603Z,8.05
2023-04-13T01:43:51.679Z,8.04
2023-04-13T01:46:29.378Z,8.03
2023-04-13T01:49:11.496Z,8.00
2023-04-13T01:51:47.465Z,7.98
2023-04-13T01:54:24.683Z,7.97
2023-04-13T01:57:00.425Z,7.94
2023-04-13T01:59:33.545Z,7.92
2023-04-13T02:02:07.046Z,7.92
2023-04-13T02:04:40.361Z,7.88
2023-04-13T02:07:13.784Z,7.86
2023-04-13T02:09:48.487Z,7.84
2023-04-13T02:12:22.180Z,7.82
2023-04-13T02:14:56.752Z,7.82
2023-04-13T02:17:30.327Z,7.81
2023-04-13T02:20:09.090Z,7.79
2023-04-13T02:22:44.039Z,7.78
2023-04-13T02:25:17.432Z,7.76
2023-04-13T02:27:51.744Z,7.74
2023-04-13T02:30:25.023Z,7.69
2023-04-13T02:32:58.558Z,7.67
2023-04-13T02:35:32.638Z,7.64
2023-04-13T02:38:07.337Z,7.63
2023-04-13T02:40:40.469Z,7.61
2023-04-13T02:43:13.944Z,7.62
2023-04-13T02:45:47.429Z,7.61
2023-04-13T02:48:22.321Z,7.60
2023-04-13T02:50:56.403Z,7.59
2023-04-13T02:53:31.468Z,7.60
2023-04-13T02:56:06.814Z,7.63
2023-04-13T02:58:41.565Z,7.64
2023-04-13T03:01:17.184Z,7.65
2023-04-13T03:03:50.380Z,7.67
2023-04-13T03:06:26.173Z,7.70
2023-04-13T03:09:00.939Z,7.72
2023-04-13T03:11:35.697Z,7.69
2023-04-13T03:14:15.640Z,7.69
2023-04-13T03:16:49.054Z,7.71
2023-04-13T03:19:23.292Z,7.73
2023-04-13T03:21:56.526Z,7.75
2023-04-13T03:24:32.506Z,7.75
2023-04-13T03:27:07.527Z,7.76
2023-04-13T03:29:42.428Z,7.77
2023-04-13T03:32:17.558Z,7.77
2023-04-13T03:34:52.536Z,7.80
2023-04-13T03:37:28.251Z,7.85
2023-04-13T03:40:02.507Z,7.89
2023-04-13T03:42:37.327Z,7.92
2023-04-13T03:45:12.295Z,7.99
2023-04-13T03:47:46.038Z,8.04
2023-04-13T03:50:19.471Z,8.13
2023-04-13T03:52:53.303Z,8.21
2023-04-13T03:55:27.153Z,8.31
2023-04-13T03:58:02.580Z,8.44
2023-04-13T04:00:36.266Z,8.52
2023-04-13T04:03:11.225Z,8.60
2023-04-13T04:05:49.423Z,8.70
2023-04-13T04:08:22.555Z,8.80
2023-04-13T04:10:57.467Z,8.87
2023-04-13T04:13:32.066Z,8.93
2023-04-13T04:16:11.626Z,9.00
2023-04-13T04:18:46.758Z,9.09
2023-04-13T04:21:22.112Z,9.17
2023-04-13T04:23:55.310Z,9.25
2023-04-13T04:26:30.165Z,9.35
2023-04-13T04:29:04.746Z,9.47
2023-04-13T04:31:40.378Z,9.65
2023-04-13T04:34:16.304Z,9.83
2023-04-13T04:36:52.159Z,10.01
2023-04-13T04:39:28.203Z,10.15
2023-04-13T04:42:04.298Z,10.30
2023-04-13T04:44:37.907Z,10.44
2023-04-13T04:47:15.517Z,10.58
2023-04-13T04:49:50.370Z,10.65
2023-04-13T04:52:25.096Z,10.76
2023-04-13T04:54:59.763Z,10.85
2023-04-13T04:57:34.213Z,10.98
2023-04-13T05:00:15.700Z,11.08
2023-04-13T05:02:51.056Z,11.18
2023-04-13T05:05:27.679Z,11.28
2023-04-13T05:08:01.328Z,11.33
2023-04-13T05:10:35.377Z,11.42
2023-04-13T05:13:09.026Z,11.48
2023-04-13T05:15:42.217Z,11.56
2023-04-13T05:18:17.025Z,11.60
2023-04-13T05:20:50.376Z,11.67
2023-04-13T05:23:23.881Z,11.78
2023-04-13T05:25:59.228Z,11.89
2023-04-13T05:28:34.278Z,12.00
2023-04-13T05:31:11.231Z,12.11
2023-04-13T05:33:46.562Z,12.27
2023-04-13T05:36:20.494Z,12.39
2023-04-13T05:38:54.636Z,12.56
2023-04-13T05:41:28.643Z,12.71
2023-04-13T05:44:02.214Z,12.84
2023-04-13T05:46:36.587Z,12.98
2023-04-13T05:49:11.773Z,13.13
2023-04-13T05:51:45.204Z,13.34
2023-04-13T05:54:18.635Z,13.60
2023-04-13T05:56:53.350Z,13.84
2023-04-13T05:59:27.484Z,14.08
2023-04-13T06:02:03.384Z,14.31
2023-04-13T06:04:37.157Z,14.49
2023-04-13T06:07:10.738Z,14.66
2023-04-13T06:09:45.542Z,14.87
2023-04-13T06:12:19.577Z,15.11
2023-04-13T06:14:52.916Z,15.33
2023-04-13T06:17:26.048Z,15.55
2023-04-13T06:19:59.537Z,15.75
2023-04-13T06:22:34.207Z,16.00
2023-04-13T06:27:51.494Z,16.50
2023-04-13T06:30:25.709Z,16.60
2023-04-13T06:33:00.674Z,17.02
2023-04-13T06:35:34.173Z,17.51
2023-04-13T06:38:08.556Z,18.07
2023-04-13T06:40:43.544Z,18.49
2023-04-13T06:43:28.767Z,18.97
2023-04-13T06:46:00.376Z,19.57
2023-04-13T06:48:34.731Z,20.01
2023-04-13T06:51:08.659Z,21.02
2023-04-13T06:53:42.259Z,21.87
2023-04-13T06:56:15.596Z,22.36
2023-04-13T06:58:49.059Z,22.72
2023-04-13T07:01:22.387Z,22.65
2023-04-13T07:03:55.927Z,22.42
2023-04-13T07:09:11.699Z,22.15
2023-04-13T07:11:45.713Z,21.70
2023-04-13T07:14:20.820Z,21.23
2023-04-13T07:16:54.505Z,21.09
2023-04-13T07:19:28.202Z,20.85
2023-04-13T07:22:04.390Z,20.49
2023-04-13T07:24:38.708Z,20.16
2023-04-13T07:27:13.548Z,19.74
2023-04-13T07:29:47.152Z,20.11
2023-04-13T07:32:24.481Z,21.22
2023-04-13T07:34:59.387Z,22.94
2023-04-13T07:37:34.530Z,23.74
2023-04-13T07:40:11.697Z,24.63
2023-04-13T07:42:47.359Z,26.10
2023-04-13T07:45:21.278Z,27.02
2023-04-13T07:47:54.910Z,26.82
2023-04-13T07:50:28.117Z,26.86
2023-04-13T07:53:01.800Z,27.11
2023-04-13T07:55:35.318Z,27.58
2023-04-13T07:58:09.251Z,28.35
2023-04-13T08:00:42.747Z,28.81
2023-04-13T08:03:16.830Z,29.16
2023-04-13T08:05:52.088Z,30.36
2023-04-13T08:08:26.531Z,30.78
2023-04-13T08:10:59.696Z,30.35
2023-04-13T08:13:33.071Z,30.81
2023-04-13T08:18:48.497Z,31.19
2023-04-13T08:21:23.931Z,30.10
2023-04-13T08:23:57.500Z,29.18
2023-04-13T08:26:30.963Z,28.87
2023-04-13T08:29:05.724Z,29.06
2023-04-13T08:31:41.099Z,28.77
2023-04-13T08:34:14.598Z,28.41
2023-04-13T08:36:47.949Z,28.07
2023-04-13T08:39:22.306Z,27.62
2023-04-13T08:41:57.023Z,27.58
2023-04-13T08:44:32.827Z,27.63
2023-04-13T08:47:06.726Z,27.70
2023-04-13T08:49:42.023Z,28.11
2023-04-13T08:52:20.648Z,28.19
2023-04-13T08:54:57.739Z,28.31
2023-04-13T08:57:35.657Z,28.70
2023-04-13T09:00:14.034Z,29.36
2023-04-13T09:03:02.962Z,28.51
2023-04-13T09:05:28.402Z,27.51
2023-04-13T09:08:06.702Z,27.81
2023-04-13T09:10:42.334Z,29.16
2023-04-13T09:13:19.192Z,29.81
2023-04-13T09:15:53.136Z,30.07
2023-04-13T09:18:34.628Z,30.18
2023-04-13T09:21:10.151Z,31.90
2023-04-13T09:23:45.072Z,33.47
2023-04-13T09:26:18.537Z,34.90
2023-04-13T09:28:55.543Z,35.54
2023-04-13T09:31:28.530Z,35.95
2023-04-13T09:34:02.254Z,35.94
2023-04-13T09:36:41.167Z,35.91
2023-04-13T09:39:11.991Z,36.09
2023-04-13T09:41:47.082Z,35.27
2023-04-13T09:44:23.444Z,35.26
2023-04-13T09:47:07.056Z,35.43
2023-04-13T09:49:41.608Z,36.42
2023-04-13T09:52:22.913Z,36.70
2023-04-13T09:54:58.806Z,36.26
2023-04-13T09:57:34.508Z,35.96
2023-04-13T10:00:14.361Z,35.95
2023-04-13T10:02:49.540Z,36.59
2023-04-13T10:05:26.878Z,36.70
2023-04-13T10:08:00.539Z,36.70
2023-04-13T10:10:34.526Z,36.69
2023-04-13T10:13:11.762Z,35.92
2023-04-13T10:15:57.452Z,34.55
2023-04-13T10:18:35.128Z,32.97
2023-04-13T10:21:09.492Z,32.96
2023-04-13T10:23:43.579Z,33.36
2023-04-13T10:26:17.702Z,34.04
2023-04-13T10:28:51.135Z,34.80
2023-04-13T10:31:26.169Z,35.01
2023-04-13T10:34:01.045Z,35.47
2023-04-13T10:36:41.951Z,35.95
2023-04-13T10:39:18.299Z,36.46
2023-04-13T10:42:01.203Z,36.99
2023-04-13T10:44:48.447Z,36.83
2023-04-13T10:47:25.872Z,37.44
2023-04-13T10:50:00.385Z,37.75
2023-04-13T10:52:34.215Z,36.48
2023-04-13T10:55:11.637Z,35.44
2023-04-13T10:57:45.499Z,35.04
2023-04-13T11:00:27.314Z,35.73
2023-04-13T11:02:59.671Z,36.67
2023-04-13T11:05:33.738Z,36.76
2023-04-13T11:08:09.205Z,37.17
2023-04-13T11:10:42.508Z,37.03
2023-04-13T11:13:16.485Z,36.86
2023-04-13T11:15:51.980Z,36.67
2023-04-13T11:18:28.982Z,36.04
2023-04-13T11:21:06.011Z,35.03
2023-04-13T11:23:38.582Z,34.26
2023-04-13T11:26:12.095Z,33.69
2023-04-13T11:28:47.192Z,34.12
2023-04-13T11:31:21.544Z,35.01
2023-04-13T11:33:55.066Z,35.02
2023-04-13T11:36:30.573Z,34.16
2023-04-13T11:39:06.725Z,34.25
2023-04-13T11:41:44.581Z,33.92
2023-04-13T11:44:19.508Z,33.72
2023-04-13T11:46:56.490Z,34.03
2023-04-13T11:49:28.402Z,34.19
2023-04-13T11:52:02.362Z,34.67
2023-04-13T11:54:35.913Z,34.70
2023-04-13T11:57:09.386Z,34.51
2023-04-13T11:59:42.880Z,35.02
2023-04-13T12:02:21.726Z,35.77
2023-04-13T12:04:51.622Z,35.92
2023-04-13T12:07:26.571Z,35.92
2023-04-13T12:10:05.438Z,36.93
2023-04-13T12:15:24.341Z,37.13
2023-04-13T12:17:57.259Z,36.84
2023-04-13T12:20:26.633Z,35.91
2023-04-13T12:23:08.610Z,35.79
2023-04-13T12:25:36.413Z,35.81
2023-04-13T12:28:09.866Z,35.64
2023-04-13T12:30:43.325Z,35.74
2023-04-13T12:33:16.744Z,36.23
2023-04-13T12:35:50.034Z,36.38
2023-04-13T12:38:23.279Z,35.28
2023-04-13T12:41:00.500Z,34.45
2023-04-13T12:43:33.870Z,33.93
2023-04-13T12:46:07.277Z,33.32
2023-04-13T12:48:40.673Z,32.44
2023-04-13T12:51:14.167Z,31.97
2023-04-13T12:53:47.581Z,31.46
2023-04-13T12:56:21.066Z,30.52
2023-04-13T12:58:54.624Z,29.56
2023-04-13T13:01:28.448Z,28.89
2023-04-13T13:04:02.138Z,28.68
2023-04-13T13:06:35.922Z,28.58
2023-04-13T13:09:09.644Z,28.57
2023-04-13T13:11:42.858Z,28.48
2023-04-13T13:14:15.954Z,27.79
2023-04-13T13:16:50.230Z,27.48
2023-04-13T13:19:23.693Z,27.21
2023-04-13T13:21:57.187Z,27.14
2023-04-13T13:24:31.279Z,27.21
2023-04-13T13:29:39.764Z,27.64
2023-04-13T13:32:13.294Z,27.66
2023-04-13T13:34:46.867Z,28.09
2023-04-13T13:37:20.300Z,28.68
2023-04-13T13:39:54.126Z,29.02
2023-04-13T13:42:32.465Z,28.68
2023-04-13T13:45:02.350Z,29.24
2023-04-13T13:47:36.154Z,29.38
2023-04-13T13:50:11.870Z,28.81
2023-04-13T13:53:01.570Z,27.93
2023-04-13T13:55:24.567Z,27.19
2023-04-13T13:57:57.930Z,26.70
2023-04-13T14:00:31.373Z,26.50
2023-04-13T14:03:05.137Z,26.30
2023-04-13T14:05:38.636Z,25.99
2023-04-13T14:08:12.320Z,25.48
2023-04-13T14:10:47.522Z,25.02
2023-04-13T14:13:21.382Z,24.46
2023-04-13T14:15:54.713Z,23.87
2023-04-13T14:18:28.248Z,23.56
2023-04-13T14:23:43.545Z,23.62
2023-04-13T14:26:16.959Z,23.35
2023-04-13T14:28:51.167Z,23.22
2023-04-13T14:31:24.809Z,22.90
2023-04-13T14:33:58.303Z,22.51
2023-04-13T14:36:32.429Z,22.16
2023-04-13T14:39:06.239Z,21.82
2023-04-13T14:41:39.437Z,21.62
2023-04-13T14:44:12.617Z,21.43
2023-04-13T14:46:46.218Z,21.36
2023-04-13T14:49:19.738Z,21.27
2023-04-13T14:51:53.002Z,21.13
2023-04-13T14:54:26.447Z,21.04
2023-04-13T14:56:59.814Z,21.17
2023-04-13T14:59:32.934Z,21.28
2023-04-13T15:02:06.646Z,20.98
2023-04-13T15:04:42.232Z,20.76
2023-04-13T15:07:15.621Z,20.66
2023-04-13T15:09:49.051Z,20.50
2023-04-13T15:12:22.860Z,20.20
2023-04-13T15:14:56.894Z,19.99
2023-04-13T15:17:30.790Z,19.84
2023-04-13T15:20:07.738Z,19.61
2023-04-13T15:22:41.475Z,19.31
2023-04-13T15:25:15.018Z,18.96
2023-04-13T15:27:51.086Z,18.67
2023-04-13T15:30:28.728Z,18.47
2023-04-13T15:33:03.205Z,18.38
2023-04-13T15:35:38.167Z,18.25
2023-04-13T15:38:11.720Z,18.11
2023-04-13T15:40:44.836Z,18.04
2023-04-13T15:43:18.723Z,17.96
2023-04-13T15:45:51.872Z,17.86
2023-04-13T15:48:25.227Z,17.78
2023-04-13T15:51:02.301Z,17.70
2023-04-13T15:53:35.610Z,17.56
2023-04-13T15:56:11.867Z,17.47
2023-04-13T15:58:45.171Z,17.38
2023-04-13T16:01:18.494Z,17.27
2023-04-13T16:03:52.086Z,17.13
2023-04-13T16:06:26.108Z,16.94
2023-04-13T16:08:59.482Z,16.71
2023-04-13T16:11:32.958Z,16.59
2023-04-13T16:14:07.968Z,16.48
2023-04-13T16:16:46.793Z,16.37
2023-04-13T16:19:21.255Z,16.28
2023-04-13T16:21:54.588Z,16.21
2023-04-13T16:24:27.933Z,16.12
2023-04-13T16:27:04.276Z,16.00
2023-04-13T16:29:37.557Z,15.85
2023-04-13T16:32:11.160Z,15.67
2023-04-13T16:34:44.485Z,15.49
2023-04-13T16:37:17.827Z,15.39
2023-04-13T16:39:51.208Z,15.30
2023-04-13T16:42:24.461Z,15.15
2023-04-13T16:44:57.752Z,15.04
2023-04-13T16:47:32.388Z,14.91
2023-04-13T16:50:05.724Z,14.82
2023-04-13T16:52:40.147Z,14.75
2023-04-13T16:55:15.735Z,14.69
2023-04-13T16:57:48.857Z,14.53
2023-04-13T17:00:23.695Z,14.45
2023-04-13T17:02:58.420Z,14.35
2023-04-13T17:05:32.091Z,14.32
2023-04-13T17:08:07.609Z,14.29
2023-04-13T17:10:41.048Z,14.22
2023-04-13T17:13:14.193Z,14.20
2023-04-13T17:15:47.295Z,14.16
2023-04-13T17:18:20.868Z,14.14
2023-04-13T17:20:57.217Z,14.10
2023-04-13T17:23:30.418Z,14.05
2023-04-13T17:26:04.100Z,14.04
2023-04-13T17:28:37.354Z,13.91
2023-04-13T17:31:12.660Z,13.81
2023-04-13T17:33:45.626Z,13.77
2023-04-13T17:36:18.895Z,13.71
2023-04-13T17:38:52.425Z,13.64
2023-04-13T17:41:26.123Z,13.57
2023-04-13T17:43:59.084Z,13.55
2023-04-13T17:46:32.496Z,13.52
2023-04-13T17:49:05.679Z,13.46
2023-04-13T17:51:38.978Z,13.40
2023-04-13T17:54:12.462Z,13.39
2023-04-13T17:56:45.951Z,13.36
2023-04-13T17:59:18.983Z,13.33
2023-04-13T18:01:53.054Z,13.27
2023-04-13T18:04:26.681Z,13.22
2023-04-13T18:07:00.024Z,13.12
2023-04-13T18:09:33.278Z,13.03
2023-04-13T18:12:09.512Z,12.96
2023-04-13T18:14:42.509Z,12.88
2023-04-13T18:17:16.541Z,12.84
2023-04-13T18:19:51.053Z,12.79
2023-04-13T18:22:24.632Z,12.75
2023-04-13T18:24:57.808Z,12.71
2023-04-13T18:27:31.892Z,12.66
2023-04-13T18:30:05.274Z,12.61
2023-04-13T18:32:52.185Z,12.55
2023-04-13T18:38:28.574Z,12.54
2023-04-13T18:41:07.735Z,12.39
2023-04-13T18:43:46.294Z,12.32
2023-04-13T18:46:21.529Z,12.26
2023-04-13T18:48:54.904Z,12.23
2023-04-13T18:51:37.904Z,12.18
2023-04-13T18:54:12.338Z,12.17
2023-04-13T18:56:45.872Z,12.14
2023-04-13T18:59:19.156Z,12.17
2023-04-13T19:02:01.347Z,12.15
2023-04-13T19:04:35.775Z,12.06
2023-04-13T19:07:09.774Z,11.95
2023-04-13T19:09:42.870Z,11.86
2023-04-13T19:12:27.182Z,11.84
2023-04-13T19:15:05.454Z,11.80
2023-04-13T19:17:42.108Z,11.78
2023-04-13T19:20:19.656Z,11.77
2023-04-13T19:22:54.238Z,11.69
2023-04-13T19:25:27.634Z,11.57
2023-04-13T19:28:01.695Z,11.48
2023-04-13T19:30:35.359Z,11.43
2023-04-13T19:33:08.727Z,11.39
2023-04-13T19:35:42.025Z,11.39
2023-04-13T19:38:21.323Z,11.36
2023-04-13T19:40:57.927Z,11.24
2023-04-13T19:43:31.008Z,11.15
2023-04-13T19:46:16.772Z,11.10
2023-04-13T19:49:00.248Z,11.03
2023-04-13T19:51:33.921Z,10.93
2023-04-13T19:54:13.662Z,10.86
2023-04-13T19:56:46.761Z,10.81
2023-04-13T19:59:19.965Z,10.78
2023-04-13T20:01:53.686Z,10.69
2023-04-13T20:04:27.332Z,10.62
2023-04-13T20:07:00.875Z,10.52
2023-04-13T20:09:34.173Z,10.37
2023-04-13T20:12:09.033Z,10.27
2023-04-13T20:14:42.633Z,10.19
2023-04-13T20:17:16.395Z,10.13
2023-04-13T20:19:49.986Z,10.03
2023-04-13T20:22:23.587Z,9.94
2023-04-13T20:24:56.909Z,9.88
2023-04-13T20:27:30.780Z,9.76
2023-04-13T20:30:04.080Z,9.66
2023-04-13T20:32:37.003Z,9.55
2023-04-13T20:35:11.540Z,9.50
2023-04-13T20:37:44.900Z,9.43
2023-04-13T20:40:18.631Z,9.38
2023-04-13T20:42:52.038Z,9.33
2023-04-13T20:45:25.967Z,9.26
2023-04-13T20:50:35.869Z,9.08
2023-04-13T20:53:10.034Z,8.99
2023-04-13T20:55:43.226Z,8.89
2023-04-13T20:58:16.331Z,8.86
2023-04-13T21:00:51.022Z,8.83
2023-04-13T21:03:25.256Z,8.79
2023-04-13T21:05:58.546Z,8.74
2023-04-13T21:08:33.933Z,8.64
2023-04-13T21:11:07.268Z,8.57
2023-04-13T21:13:40.561Z,8.52
2023-04-13T21:16:14.616Z,8.45
2023-04-13T21:18:48.094Z,8.41
2023-04-13T21:21:23.462Z,8.39
2023-04-13T21:23:58.600Z,8.31
2023-04-13T21:26:32.169Z,8.27
2023-04-13T21:29:09.106Z,8.20
2023-04-13T21:31:42.202Z,8.15
2023-04-13T21:34:15.696Z,8.12
2023-04-13T21:36:51.922Z,8.11
2023-04-13T21:39:25.650Z,8.07
2023-04-13T21:41:58.909Z,8.03
2023-04-13T21:44:32.816Z,7.96
2023-04-13T21:47:06.272Z,7.89
2023-04-13T21:49:39.709Z,7.79
2023-04-13T21:52:16.237Z,7.74
2023-04-13T21:54:51.538Z,7.70
2023-04-13T21:57:24.352Z,7.66
2023-04-13T21:59:57.700Z,7.64
2023-04-13T22:02:31.266Z,7.60
2023-04-13T22:05:04.878Z,7.57
2023-04-13T22:07:43.218Z,7.56
2023-04-13T22:10:15.665Z,7.53
2023-04-13T22:12:48.934Z,7.54
2023-04-13T22:15:22.142Z,7.56
2023-04-13T22:17:55.520Z,7.56
2023-04-13T22:20:28.746Z,7.55
2023-04-13T22:23:05.934Z,7.54
2023-04-13T22:25:39.009Z,7.52
2023-04-13T22:28:12.396Z,7.51
2023-04-13T22:30:45.811Z,7.49
2023-04-13T22:33:19.207Z,7.44
2023-04-13T22:35:52.779Z,7.39
2023-04-13T22:38:26.304Z,7.31
2023-04-13T22:40:59.836Z,7.30
2023-04-13T22:43:33.192Z,7.23
2023-04-13T22:46:06.618Z,7.14
2023-04-13T22:48:39.664Z,7.06
2023-04-13T22:51:12.725Z,7.02
2023-04-13T22:53:45.964Z,6.98
2023-04-13T22:56:19.152Z,6.95
2023-04-13T22:58:52.365Z,6.90
2023-04-13T23:01:25.859Z,6.86
2023-04-13T23:03:59.528Z,6.82
2023-04-13T23:06:32.979Z,6.79
2023-04-13T23:09:06.280Z,6.71
2023-04-13T23:11:39.808Z,6.57
2023-04-13T23:14:13.222Z,6.44
2023-04-13T23:16:46.631Z,6.36
2023-04-13T23:19:20.567Z,6.25
2023-04-13T23:21:53.860Z,6.18
2023-04-13T23:24:28.383Z,6.13
2023-04-13T23:27:01.702Z,6.04
2023-04-13T23:29:35.085Z,5.97
2023-04-13T23:32:08.974Z,5.89
2023-04-13T23:34:42.223Z,5.80
2023-04-13T23:37:15.566Z,5.73
2023-04-13T23:39:48.880Z,5.68
2023-04-13T23:42:22.048Z,5.60
2023-04-13T23:44:54.910Z,5.53
2023-04-13T23:47:28.849Z,5.48
2023-04-13T23:50:02.734Z,5.45
2023-04-13T23:52:36.092Z,5.40
2023-04-13T23:55:10.882Z,5.36
2023-04-13T23:57:44.092Z,5.26
